sensor_id;sensor_type;location;lat;lon;timestamp;P1;durP1;ratioP1;P2;durP2;ratioP2
38425;SDS011;24210;51.460;6.148;2022-07-23T00:01:10;5.17;;;3.53;;
38425;SDS011;24210;51.460;6.148;2022-07-23T00:03:35;6.57;;;3.60;;
38425;SDS011;24210;51.460;6.148;2022-07-23T00:06:01;6.50;;;3.07;;
38425;SDS011;24210;51.460;6.148;2022-07-23T00:08:26;5.73;;;3.50;;
38425;SDS011;24210;51.460;6.148;2022-07-23T00:10:51;4.33;;;3.00;;
38425;SDS011;24210;51.460;6.148;2022-07-23T00:13:16;5.10;;;2.90;;
38425;SDS011;24210;51.460;6.148;2022-07-23T00:15:42;5.53;;;3.53;;
38425;SDS011;24210;51.460;6.148;2022-07-23T00:18:07;4.83;;;3.27;;
38425;SDS011;24210;51.460;6.148;2022-07-23T00:20:32;6.73;;;3.00;;
38425;SDS011;24210;51.460;6.148;2022-07-23T00:22:57;4.57;;;3.27;;
38425;SDS011;24210;51.460;6.148;2022-07-23T00:25:23;4.63;;;2.83;;
38425;SDS011;24210;51.460;6.148;2022-07-23T00:27:48;4.72;;;3.60;;
38425;SDS011;24210;51.460;6.148;2022-07-23T00:30:14;3.20;;;2.87;;
38425;SDS011;24210;51.460;6.148;2022-07-23T00:32:49;5.93;;;3.03;;
38425;SDS011;24210;51.460;6.148;2022-07-23T00:35:14;3.75;;;3.25;;
38425;SDS011;24210;51.460;6.148;2022-07-23T00:37:40;7.00;;;3.93;;
38425;SDS011;24210;51.460;6.148;2022-07-23T00:40:05;6.40;;;3.33;;
38425;SDS011;24210;51.460;6.148;2022-07-23T00:42:31;5.47;;;2.97;;
38425;SDS011;24210;51.460;6.148;2022-07-23T00:44:57;3.90;;;3.58;;
38425;SDS011;24210;51.460;6.148;2022-07-23T00:47:22;6.00;;;3.37;;
38425;SDS011;24210;51.460;6.148;2022-07-23T00:49:47;9.20;;;3.30;;
38425;SDS011;24210;51.460;6.148;2022-07-23T00:52:12;6.30;;;3.97;;
38425;SDS011;24210;51.460;6.148;2022-07-23T00:54:38;5.03;;;3.53;;
38425;SDS011;24210;51.460;6.148;2022-07-23T00:57:03;7.43;;;3.85;;
38425;SDS011;24210;51.460;6.148;2022-07-23T00:59:28;5.53;;;3.47;;
38425;SDS011;24210;51.460;6.148;2022-07-23T01:01:54;7.27;;;4.27;;
38425;SDS011;24210;51.460;6.148;2022-07-23T01:04:19;4.37;;;3.97;;
38425;SDS011;24210;51.460;6.148;2022-07-23T01:06:44;3.63;;;3.33;;
38425;SDS011;24210;51.460;6.148;2022-07-23T01:09:10;6.13;;;4.30;;
38425;SDS011;24210;51.460;6.148;2022-07-23T01:11:36;4.33;;;3.23;;
38425;SDS011;24210;51.460;6.148;2022-07-23T01:14:11;3.90;;;3.03;;
38425;SDS011;24210;51.460;6.148;2022-07-23T01:16:36;4.40;;;3.70;;
38425;SDS011;24210;51.460;6.148;2022-07-23T01:19:01;5.67;;;3.47;;
38425;SDS011;24210;51.460;6.148;2022-07-23T01:21:26;6.57;;;4.23;;
38425;SDS011;24210;51.460;6.148;2022-07-23T01:23:52;3.23;;;2.90;;
38425;SDS011;24210;51.460;6.148;2022-07-23T01:26:17;3.90;;;3.60;;
38425;SDS011;24210;51.460;6.148;2022-07-23T01:28:43;5.07;;;3.53;;
38425;SDS011;24210;51.460;6.148;2022-07-23T01:31:08;5.70;;;4.17;;
38425;SDS011;24210;51.460;6.148;2022-07-23T01:33:33;4.20;;;3.90;;
38425;SDS011;24210;51.460;6.148;2022-07-23T01:35:58;5.93;;;4.30;;
38425;SDS011;24210;51.460;6.148;2022-07-23T01:38:23;6.93;;;3.77;;
38425;SDS011;24210;51.460;6.148;2022-07-23T01:40:49;3.07;;;2.73;;
38425;SDS011;24210;51.460;6.148;2022-07-23T01:43:14;6.13;;;3.63;;
38425;SDS011;24210;51.460;6.148;2022-07-23T01:45:39;4.00;;;3.47;;
38425;SDS011;24210;51.460;6.148;2022-07-23T01:48:05;4.57;;;3.87;;
38425;SDS011;24210;51.460;6.148;2022-07-23T01:50:30;7.80;;;4.27;;
38425;SDS011;24210;51.460;6.148;2022-07-23T01:52:55;9.80;;;3.20;;
38425;SDS011;24210;51.460;6.148;2022-07-23T01:55:21;6.40;;;3.67;;
38425;SDS011;24210;51.460;6.148;2022-07-23T01:57:46;4.93;;;4.23;;
38425;SDS011;24210;51.460;6.148;2022-07-23T02:00:11;4.73;;;3.70;;
38425;SDS011;24210;51.460;6.148;2022-07-23T02:02:37;8.87;;;4.07;;
38425;SDS011;24210;51.460;6.148;2022-07-23T02:05:02;6.00;;;3.90;;
38425;SDS011;24210;51.460;6.148;2022-07-23T02:07:27;4.90;;;3.60;;
38425;SDS011;24210;51.460;6.148;2022-07-23T02:09:52;4.47;;;3.03;;
38425;SDS011;24210;51.460;6.148;2022-07-23T02:12:17;3.60;;;3.27;;
38425;SDS011;24210;51.460;6.148;2022-07-23T02:14:43;5.40;;;3.60;;
38425;SDS011;24210;51.460;6.148;2022-07-23T02:17:08;5.40;;;4.03;;
38425;SDS011;24210;51.460;6.148;2022-07-23T02:19:33;3.57;;;3.27;;
38425;SDS011;24210;51.460;6.148;2022-07-23T02:21:58;5.33;;;3.07;;
38425;SDS011;24210;51.460;6.148;2022-07-23T02:24:24;4.07;;;3.63;;
38425;SDS011;24210;51.460;6.148;2022-07-23T02:26:49;4.57;;;4.13;;
38425;SDS011;24210;51.460;6.148;2022-07-23T02:29:14;7.53;;;3.70;;
38425;SDS011;24210;51.460;6.148;2022-07-23T02:31:39;5.23;;;3.60;;
38425;SDS011;24210;51.460;6.148;2022-07-23T02:34:05;6.03;;;3.57;;
38425;SDS011;24210;51.460;6.148;2022-07-23T02:36:30;5.70;;;3.75;;
38425;SDS011;24210;51.460;6.148;2022-07-23T02:38:55;4.47;;;3.43;;
38425;SDS011;24210;51.460;6.148;2022-07-23T02:41:21;4.32;;;3.92;;
38425;SDS011;24210;51.460;6.148;2022-07-23T02:43:47;5.27;;;4.10;;
38425;SDS011;24210;51.460;6.148;2022-07-23T02:46:12;4.90;;;3.77;;
38425;SDS011;24210;51.460;6.148;2022-07-23T02:48:37;4.97;;;4.47;;
38425;SDS011;24210;51.460;6.148;2022-07-23T02:51:03;4.03;;;3.63;;
38425;SDS011;24210;51.460;6.148;2022-07-23T02:53:28;4.40;;;3.40;;
38425;SDS011;24210;51.460;6.148;2022-07-23T02:55:53;8.10;;;4.00;;
38425;SDS011;24210;51.460;6.148;2022-07-23T02:58:18;4.57;;;3.73;;
38425;SDS011;24210;51.460;6.148;2022-07-23T03:00:44;4.67;;;3.30;;
38425;SDS011;24210;51.460;6.148;2022-07-23T03:03:09;5.20;;;3.90;;
38425;SDS011;24210;51.460;6.148;2022-07-23T03:05:34;3.87;;;3.53;;
38425;SDS011;24210;51.460;6.148;2022-07-23T03:07:59;5.60;;;3.90;;
38425;SDS011;24210;51.460;6.148;2022-07-23T03:10:25;5.93;;;3.93;;
38425;SDS011;24210;51.460;6.148;2022-07-23T03:12:50;3.40;;;3.10;;
38425;SDS011;24210;51.460;6.148;2022-07-23T03:15:15;4.87;;;4.17;;
38425;SDS011;24210;51.460;6.148;2022-07-23T03:17:41;6.07;;;4.20;;
38425;SDS011;24210;51.460;6.148;2022-07-23T03:20:06;5.77;;;4.37;;
38425;SDS011;24210;51.460;6.148;2022-07-23T03:22:31;4.80;;;4.27;;
38425;SDS011;24210;51.460;6.148;2022-07-23T03:24:57;4.87;;;3.70;;
38425;SDS011;24210;51.460;6.148;2022-07-23T03:27:23;5.33;;;3.47;;
38425;SDS011;24210;51.460;6.148;2022-07-23T03:29:49;3.65;;;3.30;;
38425;SDS011;24210;51.460;6.148;2022-07-23T03:32:14;6.28;;;4.30;;
38425;SDS011;24210;51.460;6.148;2022-07-23T03:34:39;9.20;;;4.37;;
38425;SDS011;24210;51.460;6.148;2022-07-23T03:37:04;5.33;;;3.93;;
38425;SDS011;24210;51.460;6.148;2022-07-23T03:39:30;3.57;;;3.23;;
38425;SDS011;24210;51.460;6.148;2022-07-23T03:41:55;11.73;;;4.17;;
38425;SDS011;24210;51.460;6.148;2022-07-23T03:44:20;7.30;;;3.93;;
38425;SDS011;24210;51.460;6.148;2022-07-23T03:46:46;4.27;;;3.30;;
38425;SDS011;24210;51.460;6.148;2022-07-23T03:49:11;5.77;;;4.10;;
38425;SDS011;24210;51.460;6.148;2022-07-23T03:51:36;6.53;;;3.90;;
38425;SDS011;24210;51.460;6.148;2022-07-23T03:54:01;5.20;;;3.57;;
38425;SDS011;24210;51.460;6.148;2022-07-23T03:56:26;7.10;;;3.60;;
38425;SDS011;24210;51.460;6.148;2022-07-23T03:58:52;8.97;;;3.40;;
38425;SDS011;24210;51.460;6.148;2022-07-23T04:01:17;4.10;;;3.70;;
38425;SDS011;24210;51.460;6.148;2022-07-23T04:03:42;5.90;;;4.10;;
38425;SDS011;24210;51.460;6.148;2022-07-23T04:06:07;4.77;;;4.10;;
38425;SDS011;24210;51.460;6.148;2022-07-23T04:08:33;5.37;;;3.97;;
38425;SDS011;24210;51.460;6.148;2022-07-23T04:10:58;4.37;;;3.93;;
38425;SDS011;24210;51.460;6.148;2022-07-23T04:13:23;10.40;;;4.20;;
38425;SDS011;24210;51.460;6.148;2022-07-23T04:15:48;4.53;;;3.93;;
38425;SDS011;24210;51.460;6.148;2022-07-23T04:20:42;6.38;;;4.43;;
38425;SDS011;24210;51.460;6.148;2022-07-23T04:23:07;5.23;;;4.70;;
38425;SDS011;24210;51.460;6.148;2022-07-23T04:25:32;5.03;;;4.53;;
38425;SDS011;24210;51.460;6.148;2022-07-23T04:27:58;7.93;;;5.00;;
38425;SDS011;24210;51.460;6.148;2022-07-23T04:30:23;5.30;;;4.80;;
38425;SDS011;24210;51.460;6.148;2022-07-23T04:32:48;7.93;;;4.50;;
38425;SDS011;24210;51.460;6.148;2022-07-23T04:35:13;6.17;;;5.03;;
38425;SDS011;24210;51.460;6.148;2022-07-23T04:37:38;6.97;;;4.87;;
38425;SDS011;24210;51.460;6.148;2022-07-23T04:40:04;6.67;;;4.80;;
38425;SDS011;24210;51.460;6.148;2022-07-23T04:42:29;6.43;;;5.13;;
38425;SDS011;24210;51.460;6.148;2022-07-23T04:44:54;5.53;;;4.73;;
38425;SDS011;24210;51.460;6.148;2022-07-23T04:47:19;7.20;;;5.20;;
38425;SDS011;24210;51.460;6.148;2022-07-23T04:49:45;6.60;;;5.57;;
38425;SDS011;24210;51.460;6.148;2022-07-23T04:52:10;9.03;;;5.00;;
38425;SDS011;24210;51.460;6.148;2022-07-23T04:54:35;10.97;;;5.93;;
38425;SDS011;24210;51.460;6.148;2022-07-23T04:57:00;8.27;;;4.93;;
38425;SDS011;24210;51.460;6.148;2022-07-23T04:59:25;7.33;;;4.90;;
38425;SDS011;24210;51.460;6.148;2022-07-23T05:01:51;5.37;;;4.87;;
38425;SDS011;24210;51.460;6.148;2022-07-23T05:04:16;6.67;;;5.87;;
38425;SDS011;24210;51.460;6.148;2022-07-23T05:06:41;8.67;;;6.17;;
38425;SDS011;24210;51.460;6.148;2022-07-23T05:09:06;6.20;;;4.77;;
38425;SDS011;24210;51.460;6.148;2022-07-23T05:11:32;6.10;;;5.57;;
38425;SDS011;24210;51.460;6.148;2022-07-23T05:13:57;9.20;;;5.70;;
38425;SDS011;24210;51.460;6.148;2022-07-23T05:16:22;6.63;;;5.13;;
38425;SDS011;24210;51.460;6.148;2022-07-23T05:18:47;6.00;;;5.47;;
38425;SDS011;24210;51.460;6.148;2022-07-23T05:21:12;5.70;;;5.20;;
38425;SDS011;24210;51.460;6.148;2022-07-23T05:23:38;6.07;;;5.47;;
38425;SDS011;24210;51.460;6.148;2022-07-23T05:26:03;6.90;;;5.57;;
38425;SDS011;24210;51.460;6.148;2022-07-23T05:28:28;7.47;;;5.77;;
38425;SDS011;24210;51.460;6.148;2022-07-23T05:30:54;9.07;;;5.30;;
38425;SDS011;24210;51.460;6.148;2022-07-23T05:33:19;7.80;;;5.93;;
38425;SDS011;24210;51.460;6.148;2022-07-23T05:35:44;7.40;;;6.20;;
38425;SDS011;24210;51.460;6.148;2022-07-23T05:38:10;7.93;;;6.03;;
38425;SDS011;24210;51.460;6.148;2022-07-23T05:40:35;6.87;;;6.17;;
38425;SDS011;24210;51.460;6.148;2022-07-23T05:43:00;11.13;;;6.50;;
38425;SDS011;24210;51.460;6.148;2022-07-23T05:45:25;7.07;;;6.33;;
38425;SDS011;24210;51.460;6.148;2022-07-23T05:47:50;7.80;;;6.40;;
38425;SDS011;24210;51.460;6.148;2022-07-23T05:50:16;7.20;;;6.50;;
38425;SDS011;24210;51.460;6.148;2022-07-23T05:52:41;8.03;;;7.23;;
38425;SDS011;24210;51.460;6.148;2022-07-23T05:55:07;8.57;;;6.07;;
38425;SDS011;24210;51.460;6.148;2022-07-23T05:57:33;6.78;;;6.15;;
38425;SDS011;24210;51.460;6.148;2022-07-23T05:59:58;10.97;;;6.50;;
38425;SDS011;24210;51.460;6.148;2022-07-23T06:02:24;8.63;;;6.37;;
38425;SDS011;24210;51.460;6.148;2022-07-23T06:04:49;7.60;;;6.03;;
38425;SDS011;24210;51.460;6.148;2022-07-23T06:07:14;6.90;;;6.20;;
38425;SDS011;24210;51.460;6.148;2022-07-23T06:09:39;6.43;;;5.87;;
38425;SDS011;24210;51.460;6.148;2022-07-23T06:12:05;7.20;;;6.53;;
38425;SDS011;24210;51.460;6.148;2022-07-23T06:14:30;10.93;;;7.10;;
38425;SDS011;24210;51.460;6.148;2022-07-23T06:16:55;6.53;;;5.93;;
38425;SDS011;24210;51.460;6.148;2022-07-23T06:19:20;10.57;;;6.37;;
38425;SDS011;24210;51.460;6.148;2022-07-23T06:21:46;7.40;;;6.50;;
38425;SDS011;24210;51.460;6.148;2022-07-23T06:24:11;6.93;;;6.27;;
38425;SDS011;24210;51.460;6.148;2022-07-23T06:26:36;9.67;;;6.30;;
38425;SDS011;24210;51.460;6.148;2022-07-23T06:29:01;6.63;;;5.97;;
38425;SDS011;24210;51.460;6.148;2022-07-23T06:31:26;11.13;;;6.53;;
38425;SDS011;24210;51.460;6.148;2022-07-23T06:33:52;7.80;;;5.77;;
38425;SDS011;24210;51.460;6.148;2022-07-23T06:36:17;7.93;;;5.73;;
38425;SDS011;24210;51.460;6.148;2022-07-23T06:38:42;8.53;;;5.87;;
38425;SDS011;24210;51.460;6.148;2022-07-23T06:41:07;7.73;;;6.30;;
38425;SDS011;24210;51.460;6.148;2022-07-23T06:43:33;9.73;;;6.37;;
38425;SDS011;24210;51.460;6.148;2022-07-23T06:45:58;9.20;;;6.80;;
38425;SDS011;24210;51.460;6.148;2022-07-23T06:48:23;5.03;;;4.53;;
38425;SDS011;24210;51.460;6.148;2022-07-23T06:50:48;8.77;;;5.30;;
38425;SDS011;24210;51.460;6.148;2022-07-23T06:53:14;8.00;;;4.90;;
38425;SDS011;24210;51.460;6.148;2022-07-23T06:55:39;5.17;;;4.73;;
38425;SDS011;24210;51.460;6.148;2022-07-23T06:58:06;7.90;;;4.88;;
38425;SDS011;24210;51.460;6.148;2022-07-23T07:00:31;8.97;;;5.07;;
38425;SDS011;24210;51.460;6.148;2022-07-23T07:02:57;7.47;;;5.18;;
38425;SDS011;24210;51.460;6.148;2022-07-23T07:05:22;8.70;;;5.60;;
38425;SDS011;24210;51.460;6.148;2022-07-23T07:07:48;5.77;;;4.17;;
38425;SDS011;24210;51.460;6.148;2022-07-23T07:10:13;6.87;;;4.20;;
38425;SDS011;24210;51.460;6.148;2022-07-23T07:12:41;6.13;;;5.22;;
38425;SDS011;24210;51.460;6.148;2022-07-23T07:15:06;7.83;;;4.53;;
38425;SDS011;24210;51.460;6.148;2022-07-23T07:17:31;6.17;;;4.83;;
38425;SDS011;24210;51.460;6.148;2022-07-23T07:19:57;4.17;;;3.80;;
38425;SDS011;24210;51.460;6.148;2022-07-23T07:22:22;3.93;;;3.63;;
38425;SDS011;24210;51.460;6.148;2022-07-23T07:24:47;6.13;;;4.50;;
38425;SDS011;24210;51.460;6.148;2022-07-23T07:27:12;4.87;;;3.83;;
38425;SDS011;24210;51.460;6.148;2022-07-23T07:29:37;6.00;;;3.87;;
38425;SDS011;24210;51.460;6.148;2022-07-23T07:32:03;6.67;;;3.17;;
38425;SDS011;24210;51.460;6.148;2022-07-23T07:34:28;2.63;;;1.87;;
38425;SDS011;24210;51.460;6.148;2022-07-23T07:36:53;5.67;;;2.80;;
38425;SDS011;24210;51.460;6.148;2022-07-23T07:39:18;4.37;;;2.37;;
38425;SDS011;24210;51.460;6.148;2022-07-23T07:41:44;2.93;;;2.30;;
38425;SDS011;24210;51.460;6.148;2022-07-23T07:44:09;4.20;;;2.57;;
38425;SDS011;24210;51.460;6.148;2022-07-23T07:46:34;5.20;;;2.50;;
38425;SDS011;24210;51.460;6.148;2022-07-23T07:48:59;5.73;;;3.40;;
38425;SDS011;24210;51.460;6.148;2022-07-23T07:51:25;7.37;;;3.90;;
38425;SDS011;24210;51.460;6.148;2022-07-23T07:53:51;6.38;;;3.65;;
38425;SDS011;24210;51.460;6.148;2022-07-23T07:56:16;4.00;;;3.20;;
38425;SDS011;24210;51.460;6.148;2022-07-23T07:58:41;6.97;;;3.80;;
38425;SDS011;24210;51.460;6.148;2022-07-23T08:01:06;5.97;;;3.57;;
38425;SDS011;24210;51.460;6.148;2022-07-23T08:03:31;3.97;;;3.30;;
38425;SDS011;24210;51.460;6.148;2022-07-23T08:05:57;6.20;;;3.60;;
38425;SDS011;24210;51.460;6.148;2022-07-23T08:08:22;3.57;;;3.00;;
38425;SDS011;24210;51.460;6.148;2022-07-23T08:10:47;4.77;;;2.87;;
38425;SDS011;24210;51.460;6.148;2022-07-23T08:13:13;8.17;;;4.07;;
38425;SDS011;24210;51.460;6.148;2022-07-23T08:15:39;5.25;;;3.83;;
38425;SDS011;24210;51.460;6.148;2022-07-23T08:18:04;4.47;;;3.40;;
38425;SDS011;24210;51.460;6.148;2022-07-23T08:20:30;5.77;;;3.20;;
38425;SDS011;24210;51.460;6.148;2022-07-23T08:22:56;3.30;;;2.27;;
38425;SDS011;24210;51.460;6.148;2022-07-23T08:25:24;4.50;;;2.60;;
38425;SDS011;24210;51.460;6.148;2022-07-23T08:27:49;6.15;;;2.80;;
38425;SDS011;24210;51.460;6.148;2022-07-23T08:30:15;3.33;;;3.03;;
38425;SDS011;24210;51.460;6.148;2022-07-23T08:32:52;2.97;;;2.70;;
38425;SDS011;24210;51.460;6.148;2022-07-23T08:35:17;4.65;;;3.22;;
38425;SDS011;24210;51.460;6.148;2022-07-23T08:37:43;5.63;;;2.85;;
38425;SDS011;24210;51.460;6.148;2022-07-23T08:40:09;4.03;;;2.27;;
38425;SDS011;24210;51.460;6.148;2022-07-23T08:42:34;6.93;;;4.17;;
38425;SDS011;24210;51.460;6.148;2022-07-23T08:45:03;7.18;;;3.45;;
38425;SDS011;24210;51.460;6.148;2022-07-23T08:47:29;5.93;;;2.70;;
38425;SDS011;24210;51.460;6.148;2022-07-23T08:49:54;3.57;;;3.23;;
38425;SDS011;24210;51.460;6.148;2022-07-23T08:52:20;3.70;;;2.22;;
38425;SDS011;24210;51.460;6.148;2022-07-23T08:54:45;4.63;;;1.93;;
38425;SDS011;24210;51.460;6.148;2022-07-23T08:57:11;3.57;;;2.27;;
38425;SDS011;24210;51.460;6.148;2022-07-23T08:59:36;5.23;;;2.33;;
38425;SDS011;24210;51.460;6.148;2022-07-23T09:02:01;2.33;;;2.13;;
38425;SDS011;24210;51.460;6.148;2022-07-23T09:04:26;2.07;;;1.87;;
38425;SDS011;24210;51.460;6.148;2022-07-23T09:06:52;3.10;;;2.80;;
38425;SDS011;24210;51.460;6.148;2022-07-23T09:09:18;5.27;;;3.57;;
38425;SDS011;24210;51.460;6.148;2022-07-23T09:11:47;5.43;;;2.05;;
38425;SDS011;24210;51.460;6.148;2022-07-23T09:14:12;2.67;;;2.08;;
38425;SDS011;24210;51.460;6.148;2022-07-23T09:16:37;4.47;;;2.53;;
38425;SDS011;24210;51.460;6.148;2022-07-23T09:19:04;4.53;;;2.50;;
38425;SDS011;24210;51.460;6.148;2022-07-23T09:21:30;6.07;;;2.10;;
38425;SDS011;24210;51.460;6.148;2022-07-23T09:23:59;3.00;;;1.92;;
38425;SDS011;24210;51.460;6.148;2022-07-23T09:31:51;3.17;;;2.53;;
38425;SDS011;24210;51.460;6.148;2022-07-23T09:36:42;2.47;;;2.27;;
38425;SDS011;24210;51.460;6.148;2022-07-23T09:39:08;3.45;;;2.40;;
38425;SDS011;24210;51.460;6.148;2022-07-23T09:41:34;4.57;;;2.73;;
38425;SDS011;24210;51.460;6.148;2022-07-23T09:46:26;2.97;;;2.00;;
38425;SDS011;24210;51.460;6.148;2022-07-23T09:48:53;1.55;;;1.45;;
38425;SDS011;24210;51.460;6.148;2022-07-23T09:51:18;9.77;;;3.30;;
38425;SDS011;24210;51.460;6.148;2022-07-23T09:53:53;2.55;;;2.00;;
38425;SDS011;24210;51.460;6.148;2022-07-23T09:56:19;6.53;;;2.33;;
38425;SDS011;24210;51.460;6.148;2022-07-23T09:58:45;4.05;;;2.25;;
38425;SDS011;24210;51.460;6.148;2022-07-23T10:01:13;4.38;;;2.20;;
38425;SDS011;24210;51.460;6.148;2022-07-23T10:03:38;3.93;;;1.60;;
38425;SDS011;24210;51.460;6.148;2022-07-23T10:06:04;3.55;;;1.73;;
38425;SDS011;24210;51.460;6.148;2022-07-23T10:08:29;6.10;;;2.27;;
38425;SDS011;24210;51.460;6.148;2022-07-23T10:13:21;5.93;;;1.98;;
38425;SDS011;24210;51.460;6.148;2022-07-23T10:16:05;3.78;;;1.77;;
38425;SDS011;24210;51.460;6.148;2022-07-23T10:18:30;3.20;;;2.27;;
38425;SDS011;24210;51.460;6.148;2022-07-23T10:20:56;2.23;;;1.50;;
38425;SDS011;24210;51.460;6.148;2022-07-23T10:23:27;3.20;;;2.00;;
38425;SDS011;24210;51.460;6.148;2022-07-23T10:31:03;3.38;;;2.03;;
38425;SDS011;24210;51.460;6.148;2022-07-23T10:33:53;2.30;;;2.08;;
38425;SDS011;24210;51.460;6.148;2022-07-23T10:39:05;2.00;;;1.50;;
38425;SDS011;24210;51.460;6.148;2022-07-23T10:41:33;2.75;;;2.08;;
38425;SDS011;24210;51.460;6.148;2022-07-23T10:44:09;2.60;;;1.63;;
38425;SDS011;24210;51.460;6.148;2022-07-23T10:46:34;6.30;;;2.75;;
38425;SDS011;24210;51.460;6.148;2022-07-23T10:49:22;2.05;;;1.88;;
38425;SDS011;24210;51.460;6.148;2022-07-23T10:54:32;3.20;;;1.73;;
38425;SDS011;24210;51.460;6.148;2022-07-23T10:59:22;3.97;;;1.40;;
38425;SDS011;24210;51.460;6.148;2022-07-23T11:01:48;1.57;;;1.47;;
38425;SDS011;24210;51.460;6.148;2022-07-23T11:04:13;3.87;;;1.50;;
38425;SDS011;24210;51.460;6.148;2022-07-23T11:09:28;1.95;;;1.35;;
38425;SDS011;24210;51.460;6.148;2022-07-23T11:17:21;1.88;;;1.10;;
38425;SDS011;24210;51.460;6.148;2022-07-23T11:22:45;1.23;;;1.13;;
38425;SDS011;24210;51.460;6.148;2022-07-23T11:25:12;3.63;;;1.58;;
38425;SDS011;24210;51.460;6.148;2022-07-23T11:30:03;1.57;;;1.20;;
38425;SDS011;24210;51.460;6.148;2022-07-23T11:32:30;2.67;;;0.97;;
38425;SDS011;24210;51.460;6.148;2022-07-23T11:34:55;2.72;;;1.40;;
38425;SDS011;24210;51.460;6.148;2022-07-23T11:39:54;3.15;;;1.30;;
38425;SDS011;24210;51.460;6.148;2022-07-23T11:42:19;2.03;;;1.83;;
38425;SDS011;24210;51.460;6.148;2022-07-23T11:44:45;1.27;;;1.13;;
38425;SDS011;24210;51.460;6.148;2022-07-23T11:47:11;1.77;;;0.85;;
38425;SDS011;24210;51.460;6.148;2022-07-23T11:49:43;0.85;;;0.77;;
38425;SDS011;24210;51.460;6.148;2022-07-23T11:52:16;1.20;;;1.10;;
38425;SDS011;24210;51.460;6.148;2022-07-23T11:57:15;2.50;;;1.40;;
38425;SDS011;24210;51.460;6.148;2022-07-23T11:59:41;1.33;;;0.97;;
38425;SDS011;24210;51.460;6.148;2022-07-23T12:02:07;1.73;;;1.10;;
38425;SDS011;24210;51.460;6.148;2022-07-23T12:04:41;3.70;;;1.50;;
38425;SDS011;24210;51.460;6.148;2022-07-23T12:09:51;1.77;;;1.63;;
38425;SDS011;24210;51.460;6.148;2022-07-23T12:12:17;2.83;;;1.90;;
38425;SDS011;24210;51.460;6.148;2022-07-23T12:14:52;1.67;;;1.47;;
38425;SDS011;24210;51.460;6.148;2022-07-23T12:17:18;5.20;;;1.52;;
38425;SDS011;24210;51.460;6.148;2022-07-23T12:19:43;1.75;;;1.30;;
38425;SDS011;24210;51.460;6.148;2022-07-23T12:22:09;2.20;;;1.27;;
38425;SDS011;24210;51.460;6.148;2022-07-23T12:27:20;1.60;;;1.17;;
38425;SDS011;24210;51.460;6.148;2022-07-23T12:29:45;3.13;;;1.13;;
38425;SDS011;24210;51.460;6.148;2022-07-23T12:32:23;1.60;;;1.50;;
38425;SDS011;24210;51.460;6.148;2022-07-23T12:34:50;0.98;;;0.77;;
38425;SDS011;24210;51.460;6.148;2022-07-23T12:37:59;2.17;;;1.15;;
38425;SDS011;24210;51.460;6.148;2022-07-23T12:40:24;2.72;;;1.55;;
38425;SDS011;24210;51.460;6.148;2022-07-23T12:42:51;4.73;;;1.80;;
38425;SDS011;24210;51.460;6.148;2022-07-23T12:45:16;1.50;;;1.38;;
38425;SDS011;24210;51.460;6.148;2022-07-23T12:48:02;1.85;;;1.55;;
38425;SDS011;24210;51.460;6.148;2022-07-23T12:55:36;2.83;;;1.45;;
38425;SDS011;24210;51.460;6.148;2022-07-23T12:58:06;2.00;;;1.58;;
38425;SDS011;24210;51.460;6.148;2022-07-23T13:00:32;4.32;;;1.98;;
38425;SDS011;24210;51.460;6.148;2022-07-23T13:02:57;1.67;;;1.40;;
38425;SDS011;24210;51.460;6.148;2022-07-23T13:05:23;4.77;;;2.20;;
38425;SDS011;24210;51.460;6.148;2022-07-23T13:07:48;2.33;;;1.67;;
38425;SDS011;24210;51.460;6.148;2022-07-23T13:10:13;4.87;;;2.57;;
38425;SDS011;24210;51.460;6.148;2022-07-23T13:12:38;2.87;;;1.60;;
38425;SDS011;24210;51.460;6.148;2022-07-23T13:15:04;1.53;;;1.40;;
38425;SDS011;24210;51.460;6.148;2022-07-23T13:17:29;1.97;;;1.77;;
38425;SDS011;24210;51.460;6.148;2022-07-23T13:19:54;5.70;;;2.30;;
38425;SDS011;24210;51.460;6.148;2022-07-23T13:22:19;3.40;;;2.53;;
38425;SDS011;24210;51.460;6.148;2022-07-23T13:24:45;5.90;;;2.50;;
38425;SDS011;24210;51.460;6.148;2022-07-23T13:27:10;2.80;;;1.70;;
38425;SDS011;24210;51.460;6.148;2022-07-23T13:29:35;4.93;;;2.40;;
38425;SDS011;24210;51.460;6.148;2022-07-23T13:32:00;5.10;;;2.87;;
38425;SDS011;24210;51.460;6.148;2022-07-23T13:34:26;3.20;;;2.83;;
38425;SDS011;24210;51.460;6.148;2022-07-23T13:36:51;5.77;;;2.67;;
38425;SDS011;24210;51.460;6.148;2022-07-23T13:39:16;2.33;;;1.97;;
38425;SDS011;24210;51.460;6.148;2022-07-23T13:41:41;2.23;;;2.03;;
38425;SDS011;24210;51.460;6.148;2022-07-23T13:44:07;5.13;;;2.50;;
38425;SDS011;24210;51.460;6.148;2022-07-23T13:46:32;3.10;;;2.30;;
38425;SDS011;24210;51.460;6.148;2022-07-23T13:48:57;9.67;;;3.40;;
38425;SDS011;24210;51.460;6.148;2022-07-23T13:51:22;4.13;;;1.53;;
38425;SDS011;24210;51.460;6.148;2022-07-23T13:53:49;2.80;;;1.60;;
38425;SDS011;24210;51.460;6.148;2022-07-23T13:56:14;2.10;;;1.90;;
38425;SDS011;24210;51.460;6.148;2022-07-23T13:58:39;3.67;;;1.53;;
38425;SDS011;24210;51.460;6.148;2022-07-23T14:01:05;2.30;;;1.73;;
38425;SDS011;24210;51.460;6.148;2022-07-23T14:03:30;1.97;;;1.87;;
38425;SDS011;24210;51.460;6.148;2022-07-23T14:05:56;2.07;;;1.70;;
38425;SDS011;24210;51.460;6.148;2022-07-23T14:08:21;6.93;;;2.50;;
38425;SDS011;24210;51.460;6.148;2022-07-23T14:10:46;3.00;;;2.30;;
38425;SDS011;24210;51.460;6.148;2022-07-23T14:13:11;2.87;;;2.27;;
38425;SDS011;24210;51.460;6.148;2022-07-23T14:15:36;2.70;;;2.00;;
38425;SDS011;24210;51.460;6.148;2022-07-23T14:18:05;3.10;;;1.65;;
38425;SDS011;24210;51.460;6.148;2022-07-23T14:20:30;2.83;;;1.93;;
38425;SDS011;24210;51.460;6.148;2022-07-23T14:22:55;7.47;;;2.23;;
38425;SDS011;24210;51.460;6.148;2022-07-23T14:25:22;3.35;;;1.85;;
38425;SDS011;24210;51.460;6.148;2022-07-23T14:27:48;3.37;;;2.67;;
38425;SDS011;24210;51.460;6.148;2022-07-23T14:30:13;2.47;;;2.20;;
38425;SDS011;24210;51.460;6.148;2022-07-23T14:35:05;4.95;;;2.58;;
38425;SDS011;24210;51.460;6.148;2022-07-23T14:37:30;4.63;;;2.33;;
38425;SDS011;24210;51.460;6.148;2022-07-23T14:39:55;3.47;;;2.40;;
38425;SDS011;24210;51.460;6.148;2022-07-23T14:42:21;2.37;;;2.20;;
38425;SDS011;24210;51.460;6.148;2022-07-23T14:44:46;5.20;;;2.13;;
38425;SDS011;24210;51.460;6.148;2022-07-23T14:47:11;3.80;;;2.10;;
38425;SDS011;24210;51.460;6.148;2022-07-23T14:49:36;4.87;;;2.33;;
38425;SDS011;24210;51.460;6.148;2022-07-23T14:52:02;4.03;;;2.43;;
38425;SDS011;24210;51.460;6.148;2022-07-23T14:54:28;2.15;;;1.95;;
38425;SDS011;24210;51.460;6.148;2022-07-23T14:56:54;3.43;;;2.30;;
38425;SDS011;24210;51.460;6.148;2022-07-23T14:59:19;2.38;;;1.85;;
38425;SDS011;24210;51.460;6.148;2022-07-23T15:01:44;4.63;;;2.23;;
38425;SDS011;24210;51.460;6.148;2022-07-23T15:04:10;4.07;;;2.23;;
38425;SDS011;24210;51.460;6.148;2022-07-23T15:06:35;2.60;;;2.40;;
38425;SDS011;24210;51.460;6.148;2022-07-23T15:09:00;5.17;;;3.57;;
38425;SDS011;24210;51.460;6.148;2022-07-23T15:11:26;3.37;;;1.90;;
38425;SDS011;24210;51.460;6.148;2022-07-23T15:13:51;4.38;;;2.08;;
38425;SDS011;24210;51.460;6.148;2022-07-23T15:16:17;1.90;;;1.70;;
38425;SDS011;24210;51.460;6.148;2022-07-23T15:18:42;3.97;;;2.17;;
38425;SDS011;24210;51.460;6.148;2022-07-23T15:21:07;2.20;;;2.00;;
38425;SDS011;24210;51.460;6.148;2022-07-23T15:23:32;2.90;;;2.03;;
38425;SDS011;24210;51.460;6.148;2022-07-23T15:25:59;2.70;;;1.88;;
38425;SDS011;24210;51.460;6.148;2022-07-23T15:28:25;4.03;;;2.03;;
38425;SDS011;24210;51.460;6.148;2022-07-23T15:30:50;4.37;;;2.50;;
38425;SDS011;24210;51.460;6.148;2022-07-23T15:38:07;4.18;;;2.40;;
38425;SDS011;24210;51.460;6.148;2022-07-23T15:40:32;4.40;;;1.77;;
38425;SDS011;24210;51.460;6.148;2022-07-23T15:42:58;3.03;;;2.30;;
38425;SDS011;24210;51.460;6.148;2022-07-23T15:45:23;2.23;;;1.57;;